sensor_id;sensor_type;location;lat;lon;timestamp;pressure;altitude;pressure_sealevel;temperature;humidity
44934;BME280;30667;43.614;1.442;2024-01-06T00:01:44;99372.22;;;7.00;100.00
44934;BME280;30667;43.614;1.442;2024-01-06T00:04:10;99367.66;;;7.01;100.00
44934;BME280;30667;43.614;1.442;2024-01-06T00:06:35;99371.16;;;7.01;100.00
44934;BME280;30667;43.614;1.442;2024-01-06T00:09:00;99371.69;;;7.03;100.00
44934;BME280;30667;43.614;1.442;2024-01-06T00:11:26;99372.50;;;7.04;100.00
44934;BME280;30667;43.614;1.442;2024-01-06T00:13:51;99376.28;;;7.03;100.00
44934;BME280;30667;43.614;1.442;2024-01-06T00:16:17;99371.69;;;7.03;100.00
44934;BME280;30667;43.614;1.442;2024-01-06T00:18:44;99374.09;;;7.05;100.00
44934;BME280;30667;43.614;1.442;2024-01-06T00:21:09;99379.47;;;7.05;100.00
44934;BME280;30667;43.614;1.442;2024-01-06T00:23:34;99376.00;;;7.04;100.00
44934;BME280;30667;43.614;1.442;2024-01-06T00:26:00;99385.13;;;7.03;100.00
44934;BME280;30667;43.614;1.442;2024-01-06T00:28:25;99390.81;;;7.07;100.00
44934;BME280;30667;43.614;1.442;2024-01-06T00:30:50;99391.06;;;7.05;100.00
44934;BME280;30667;43.614;1.442;2024-01-06T00:33:16;99383.00;;;7.05;100.00
44934;BME280;30667;43.614;1.442;2024-01-06T00:35:41;99384.59;;;7.06;100.00
44934;BME280;30667;43.614;1.442;2024-01-06T00:38:07;99394.03;;;7.09;100.00
44934;BME280;30667;43.614;1.442;2024-01-06T00:40:32;99387.56;;;7.10;100.00
44934;BME280;30667;43.614;1.442;2024-01-06T00:42:58;99387.56;;;7.10;100.00
44934;BME280;30667;43.614;1.442;2024-01-06T00:45:23;99391.34;;;7.09;100.00
44934;BME280;30667;43.614;1.442;2024-01-06T00:47:49;99398.03;;;7.06;100.00
44934;BME280;30667;43.614;1.442;2024-01-06T00:50:14;99389.97;;;7.06;100.00
44934;BME280;30667;43.614;1.442;2024-01-06T00:52:41;99385.97;;;7.04;100.00
44934;BME280;30667;43.614;1.442;2024-01-06T00:55:07;99389.19;;;7.06;100.00
44934;BME280;30667;43.614;1.442;2024-01-06T00:57:33;99398.31;;;7.05;100.00
44934;BME280;30667;43.614;1.442;2024-01-06T00:59:58;99386.50;;;7.06;100.00
44934;BME280;30667;43.614;1.442;2024-01-06T01:02:23;99392.66;;;7.06;100.00
44934;BME280;30667;43.614;1.442;2024-01-06T01:04:49;99387.84;;;7.08;100.00
44934;BME280;30667;43.614;1.442;2024-01-06T01:07:14;99388.91;;;7.07;100.00
44934;BME280;30667;43.614;1.442;2024-01-06T01:09:39;99387.84;;;7.08;100.00
44934;BME280;30667;43.614;1.442;2024-01-06T01:12:05;99386.22;;;7.07;100.00
44934;BME280;30667;43.614;1.442;2024-01-06T01:14:30;99394.81;;;7.09;100.00
44934;BME280;30667;43.614;1.442;2024-01-06T01:16:56;99391.84;;;7.11;100.00
44934;BME280;30667;43.614;1.442;2024-01-06T01:19:21;99391.59;;;7.07;100.00
44934;BME280;30667;43.614;1.442;2024-01-06T01:21:47;99402.88;;;7.09;100.00
44934;BME280;30667;43.614;1.442;2024-01-06T01:24:12;99390.25;;;7.10;100.00
44934;BME280;30667;43.614;1.442;2024-01-06T01:26:37;99391.06;;;7.11;100.00
44934;BME280;30667;43.614;1.442;2024-01-06T01:29:03;99395.91;;;7.08;100.00
44934;BME280;30667;43.614;1.442;2024-01-06T01:31:28;99391.59;;;7.07;100.00
44934;BME280;30667;43.614;1.442;2024-01-06T01:33:53;99400.47;;;7.08;100.00
44934;BME280;30667;43.614;1.442;2024-01-06T01:36:19;99414.19;;;7.06;100.00
44934;BME280;30667;43.614;1.442;2024-01-06T01:38:44;99411.22;;;7.08;100.00
44934;BME280;30667;43.614;1.442;2024-01-06T01:41:09;99406.69;;;7.08;100.00
44934;BME280;30667;43.614;1.442;2024-01-06T01:43:35;99411.50;;;7.06;100.00
44934;BME280;30667;43.614;1.442;2024-01-06T01:46:00;99422.00;;;7.08;100.00
44934;BME280;30667;43.614;1.442;2024-01-06T01:48:26;99422.25;;;7.06;100.00
44934;BME280;30667;43.614;1.442;2024-01-06T01:50:53;99426.03;;;7.05;100.00
44934;BME280;30667;43.614;1.442;2024-01-06T01:53:19;99425.75;;;7.02;100.00
44934;BME280;30667;43.614;1.442;2024-01-06T01:55:47;99420.94;;;7.04;100.00
44934;BME280;30667;43.614;1.442;2024-01-06T01:58:13;99425.22;;;7.00;100.00
44934;BME280;30667;43.614;1.442;2024-01-06T02:00:39;99430.06;;;6.98;100.00
44934;BME280;30667;43.614;1.442;2024-01-06T02:03:05;99431.13;;;6.91;100.00
44934;BME280;30667;43.614;1.442;2024-01-06T02:05:32;99437.31;;;6.92;100.00
44934;BME280;30667;43.614;1.442;2024-01-06T02:07:58;99435.97;;;6.89;100.00
44934;BME280;30667;43.614;1.442;2024-01-06T02:10:23;99442.41;;;6.88;100.00
44934;BME280;30667;43.614;1.442;2024-01-06T02:12:49;99451.03;;;6.85;100.00
44934;BME280;30667;43.614;1.442;2024-01-06T02:15:17;99455.88;;;6.83;100.00
44934;BME280;30667;43.614;1.442;2024-01-06T02:17:42;99465.25;;;6.81;100.00
44934;BME280;30667;43.614;1.442;2024-01-06T02:20:08;99460.72;;;6.81;100.00
44934;BME280;30667;43.614;1.442;2024-01-06T02:22:36;99470.38;;;6.82;100.00
44934;BME280;30667;43.614;1.442;2024-01-06T02:25:03;99463.94;;;6.83;100.00
44934;BME280;30667;43.614;1.442;2024-01-06T02:27:32;99473.06;;;6.82;100.00
44934;BME280;30667;43.614;1.442;2024-01-06T02:29:58;99470.38;;;6.82;100.00
44934;BME280;30667;43.614;1.442;2024-01-06T02:32:23;99471.47;;;6.81;100.00
44934;BME280;30667;43.614;1.442;2024-01-06T02:34:48;99474.94;;;6.82;100.00
44934;BME280;30667;43.614;1.442;2024-01-06T02:37:14;99478.16;;;6.79;100.00
44934;BME280;30667;43.614;1.442;2024-01-06T02:39:39;99469.00;;;6.75;100.00
44934;BME280;30667;43.614;1.442;2024-01-06T02:42:05;99470.91;;;6.74;100.00
44934;BME280;30667;43.614;1.442;2024-01-06T02:44:30;99472.78;;;6.73;100.00
44934;BME280;30667;43.614;1.442;2024-01-06T02:46:56;99473.59;;;6.69;100.00
44934;BME280;30667;43.614;1.442;2024-01-06T02:49:21;99470.63;;;6.70;100.00
44934;BME280;30667;43.614;1.442;2024-01-06T02:51:46;99471.16;;;6.67;100.00
44934;BME280;30667;43.614;1.442;2024-01-06T02:54:12;99471.16;;;6.62;100.00
44934;BME280;30667;43.614;1.442;2024-01-06T02:56:37;99474.91;;;6.61;100.00
44934;BME280;30667;43.614;1.442;2024-01-06T02:59:04;99474.63;;;6.58;100.00
44934;BME280;30667;43.614;1.442;2024-01-06T03:01:31;99478.63;;;6.55;100.00
44934;BME280;30667;43.614;1.442;2024-01-06T03:03:56;99476.47;;;6.52;100.00
44934;BME280;30667;43.614;1.442;2024-01-06T03:06:22;99482.13;;;6.50;100.00
44934;BME280;30667;43.614;1.442;2024-01-06T03:08:47;99489.66;;;6.53;100.00
44934;BME280;30667;43.614;1.442;2024-01-06T03:11:12;99482.91;;;6.51;100.00
44934;BME280;30667;43.614;1.442;2024-01-06T03:13:38;99484.53;;;6.52;100.00
44934;BME280;30667;43.614;1.442;2024-01-06T03:16:04;99485.34;;;6.52;100.00
44934;BME280;30667;43.614;1.442;2024-01-06T03:18:30;99486.44;;;6.51;100.00
44934;BME280;30667;43.614;1.442;2024-01-06T03:20:55;99488.84;;;6.53;100.00
44934;BME280;30667;43.614;1.442;2024-01-06T03:23:21;99500.66;;;6.52;100.00
44934;BME280;30667;43.614;1.442;2024-01-06T03:25:46;99496.34;;;6.51;100.00
44934;BME280;30667;43.614;1.442;2024-01-06T03:28:11;99504.72;;;6.49;100.00
44934;BME280;30667;43.614;1.442;2024-01-06T03:30:37;99504.13;;;6.47;100.00
44934;BME280;30667;43.614;1.442;2024-01-06T03:33:02;99507.41;;;6.49;100.00
44934;BME280;30667;43.614;1.442;2024-01-06T03:35:28;99503.09;;;6.48;100.00
44934;BME280;30667;43.614;1.442;2024-01-06T03:37:54;99510.03;;;6.44;100.00
44934;BME280;30667;43.614;1.442;2024-01-06T03:40:20;99511.66;;;6.45;100.00
44934;BME280;30667;43.614;1.442;2024-01-06T03:42:45;99509.78;;;6.46;100.00
44934;BME280;30667;43.614;1.442;2024-01-06T03:45:10;99515.41;;;6.44;100.00
44934;BME280;30667;43.614;1.442;2024-01-06T03:47:36;99508.72;;;6.42;100.00
44934;BME280;30667;43.614;1.442;2024-01-06T03:50:03;99513.50;;;6.40;100.00
44934;BME280;30667;43.614;1.442;2024-01-06T03:52:29;99518.34;;;6.38;100.00
44934;BME280;30667;43.614;1.442;2024-01-06T03:54:54;99518.59;;;6.36;100.00
44934;BME280;30667;43.614;1.442;2024-01-06T03:57:19;99519.66;;;6.30;100.00
44934;BME280;30667;43.614;1.442;2024-01-06T03:59:45;99518.06;;;6.29;100.00
44934;BME280;30667;43.614;1.442;2024-01-06T04:02:10;99522.31;;;6.25;100.00
44934;BME280;30667;43.614;1.442;2024-01-06T04:04:36;99527.16;;;6.28;100.00
44934;BME280;30667;43.614;1.442;2024-01-06T04:07:01;99528.75;;;6.24;100.00
44934;BME280;30667;43.614;1.442;2024-01-06T04:09:27;99532.81;;;6.26;100.00
44934;BME280;30667;43.614;1.442;2024-01-06T04:11:52;99527.44;;;6.26;100.00
44934;BME280;30667;43.614;1.442;2024-01-06T04:14:17;99532.81;;;6.26;100.00
44934;BME280;30667;43.614;1.442;2024-01-06T04:16:43;99534.38;;;6.22;100.00
44934;BME280;30667;43.614;1.442;2024-01-06T04:19:08;99519.88;;;6.23;100.00
44934;BME280;30667;43.614;1.442;2024-01-06T04:21:36;99534.63;;;6.21;100.00
44934;BME280;30667;43.614;1.442;2024-01-06T04:24:01;99533.03;;;6.20;100.00
44934;BME280;30667;43.614;1.442;2024-01-06T04:26:27;99522.81;;;6.16;100.00
44934;BME280;30667;43.614;1.442;2024-01-06T04:28:52;99531.38;;;6.13;100.00
44934;BME280;30667;43.614;1.442;2024-01-06T04:31:18;99529.22;;;6.10;100.00
44934;BME280;30667;43.614;1.442;2024-01-06T04:33:43;99524.91;;;6.09;100.00
44934;BME280;30667;43.614;1.442;2024-01-06T04:36:08;99523.31;;;6.08;100.00
44934;BME280;30667;43.614;1.442;2024-01-06T04:38:34;99527.84;;;6.08;100.00
44934;BME280;30667;43.614;1.442;2024-01-06T04:40:59;99528.94;;;6.07;100.00
44934;BME280;30667;43.614;1.442;2024-01-06T04:43:25;99530.78;;;6.06;100.00
44934;BME280;30667;43.614;1.442;2024-01-06T04:45:50;99533.19;;;6.03;100.00
44934;BME280;30667;43.614;1.442;2024-01-06T04:48:15;99536.41;;;5.99;100.00
44934;BME280;30667;43.614;1.442;2024-01-06T04:50:41;99527.03;;;6.02;100.00
44934;BME280;30667;43.614;1.442;2024-01-06T04:53:06;99534.81;;;6.04;100.00
44934;BME280;30667;43.614;1.442;2024-01-06T04:55:32;99532.41;;;6.02;100.00
44934;BME280;30667;43.614;1.442;2024-01-06T04:57:57;99535.59;;;5.99;100.00
44934;BME280;30667;43.614;1.442;2024-01-06T05:00:23;99533.97;;;5.98;100.00
44934;BME280;30667;43.614;1.442;2024-01-06T05:02:48;99535.81;;;5.92;100.00
44934;BME280;30667;43.614;1.442;2024-01-06T05:05:14;99536.06;;;5.91;100.00
44934;BME280;30667;43.614;1.442;2024-01-06T05:07:39;99542.50;;;5.90;100.00
44934;BME280;30667;43.614;1.442;2024-01-06T05:10:05;99542.22;;;5.91;100.00
44934;BME280;30667;43.614;1.442;2024-01-06T05:12:31;99542.50;;;5.90;100.00
44934;BME280;30667;43.614;1.442;2024-01-06T05:14:56;99543.84;;;5.87;100.00
44934;BME280;30667;43.614;1.442;2024-01-06T05:17:22;99547.81;;;5.85;100.00
44934;BME280;30667;43.614;1.442;2024-01-06T05:19:47;99550.25;;;5.86;100.00
44934;BME280;30667;43.614;1.442;2024-01-06T05:22:12;99551.56;;;5.83;100.00
44934;BME280;30667;43.614;1.442;2024-01-06T05:24:38;99554.25;;;5.83;100.00
44934;BME280;30667;43.614;1.442;2024-01-06T05:27:04;99558.03;;;5.82;100.00
44934;BME280;30667;43.614;1.442;2024-01-06T05:29:29;99551.81;;;5.82;100.00
44934;BME280;30667;43.614;1.442;2024-01-06T05:31:55;99557.44;;;5.80;100.00
44934;BME280;30667;43.614;1.442;2024-01-06T05:34:20;99555.84;;;5.79;100.00
44934;BME280;30667;43.614;1.442;2024-01-06T05:36:45;99559.63;;;5.83;100.00
44934;BME280;30667;43.614;1.442;2024-01-06T05:39:11;99555.59;;;5.81;100.00
44934;BME280;30667;43.614;1.442;2024-01-06T05:41:40;99562.81;;;5.80;100.00
44934;BME280;30667;43.614;1.442;2024-01-06T05:44:06;99562.56;;;5.82;100.00
44934;BME280;30667;43.614;1.442;2024-01-06T05:46:31;99567.13;;;5.81;100.00
44934;BME280;30667;43.614;1.442;2024-01-06T05:48:58;99569.56;;;5.83;100.00
44934;BME280;30667;43.614;1.442;2024-01-06T05:51:25;99567.13;;;5.81;100.00
44934;BME280;30667;43.614;1.442;2024-01-06T05:53:50;99568.75;;;5.82;100.00
44934;BME280;30667;43.614;1.442;2024-01-06T05:56:25;99571.72;;;5.81;100.00
44934;BME280;30667;43.614;1.442;2024-01-06T05:58:52;99572.75;;;5.80;100.00
44934;BME280;30667;43.614;1.442;2024-01-06T06:01:18;99578.13;;;5.80;100.00
44934;BME280;30667;43.614;1.442;2024-01-06T06:03:44;99586.19;;;5.80;100.00
44934;BME280;30667;43.614;1.442;2024-01-06T06:06:09;99585.13;;;5.81;100.00
44934;BME280;30667;43.614;1.442;2024-01-06T06:08:34;99591.28;;;5.81;100.00
44934;BME280;30667;43.614;1.442;2024-01-06T06:11:00;99596.13;;;5.79;100.00
44934;BME280;30667;43.614;1.442;2024-01-06T06:13:36;99589.97;;;5.84;100.00
44934;BME280;30667;43.614;1.442;2024-01-06T06:16:02;99591.59;;;5.85;100.00
44934;BME280;30667;43.614;1.442;2024-01-06T06:18:27;99599.38;;;5.87;100.00
44934;BME280;30667;43.614;1.442;2024-01-06T06:20:53;99597.53;;;5.87;100.00
44934;BME280;30667;43.614;1.442;2024-01-06T06:23:18;99598.06;;;5.89;100.00
44934;BME280;30667;43.614;1.442;2024-01-06T06:25:43;99599.41;;;5.92;100.00
44934;BME280;30667;43.614;1.442;2024-01-06T06:28:09;99608.81;;;5.89;100.00
44934;BME280;30667;43.614;1.442;2024-01-06T06:30:34;99606.13;;;5.89;100.00
44934;BME280;30667;43.614;1.442;2024-01-06T06:33:00;99607.47;;;5.92;100.00
44934;BME280;30667;43.614;1.442;2024-01-06T06:35:25;99603.47;;;5.94;100.00
44934;BME280;30667;43.614;1.442;2024-01-06T06:37:51;99609.66;;;5.95;100.00
44934;BME280;30667;43.614;1.442;2024-01-06T06:40:16;99608.31;;;5.92;100.00
44934;BME280;30667;43.614;1.442;2024-01-06T06:42:41;99610.47;;;5.95;100.00
44934;BME280;30667;43.614;1.442;2024-01-06T06:45:07;99615.38;;;5.98;100.00
44934;BME280;30667;43.614;1.442;2024-01-06T06:47:33;99617.22;;;5.98;100.00
44934;BME280;30667;43.614;1.442;2024-01-06T06:49:58;99622.34;;;5.99;100.00
44934;BME280;30667;43.614;1.442;2024-01-06T06:52:24;99619.09;;;5.97;100.00
44934;BME280;30667;43.614;1.442;2024-01-06T06:54:49;99631.22;;;6.00;100.00
44934;BME280;30667;43.614;1.442;2024-01-06T06:57:15;99632.81;;;6.01;100.00
44934;BME280;30667;43.614;1.442;2024-01-06T06:59:40;99632.03;;;6.00;100.00
44934;BME280;30667;43.614;1.442;2024-01-06T07:02:06;99632.28;;;5.99;100.00
44934;BME280;30667;43.614;1.442;2024-01-06T07:04:32;99628.53;;;6.00;100.00
44934;BME280;30667;43.614;1.442;2024-01-06T07:06:58;99635.75;;;5.99;100.00
44934;BME280;30667;43.614;1.442;2024-01-06T07:09:23;99634.44;;;6.02;100.00
44934;BME280;30667;43.614;1.442;2024-01-06T07:11:49;99634.19;;;6.04;100.00
44934;BME280;30667;43.614;1.442;2024-01-06T07:17:33;99641.72;;;6.02;100.00
44934;BME280;30667;43.614;1.442;2024-01-06T07:20:01;99639.56;;;6.04;100.00
44934;BME280;30667;43.614;1.442;2024-01-06T07:22:27;99648.16;;;6.06;100.00
44934;BME280;30667;43.614;1.442;2024-01-06T07:24:52;99652.75;;;6.05;100.00
44934;BME280;30667;43.614;1.442;2024-01-06T07:27:17;99651.13;;;6.04;100.00
44934;BME280;30667;43.614;1.442;2024-01-06T07:29:43;99659.47;;;6.08;100.00
44934;BME280;30667;43.614;1.442;2024-01-06T07:32:08;99656.88;;;6.18;100.00
44934;BME280;30667;43.614;1.442;2024-01-06T07:34:33;99657.38;;;6.15;100.00
44934;BME280;30667;43.614;1.442;2024-01-06T07:37:00;99654.66;;;6.10;100.00
44934;BME280;30667;43.614;1.442;2024-01-06T07:39:25;99662.97;;;6.08;100.00
44934;BME280;30667;43.614;1.442;2024-01-06T07:41:51;99652.50;;;6.07;100.00
44934;BME280;30667;43.614;1.442;2024-01-06T07:44:16;99658.09;;;6.05;100.00
44934;BME280;30667;43.614;1.442;2024-01-06T07:46:47;99662.09;;;6.03;100.00
44934;BME280;30667;43.614;1.442;2024-01-06T07:49:13;99665.34;;;6.05;100.00
44934;BME280;30667;43.614;1.442;2024-01-06T07:51:38;99671.28;;;6.07;100.00
44934;BME280;30667;43.614;1.442;2024-01-06T07:54:04;99664.28;;;6.06;100.00
44934;BME280;30667;43.614;1.442;2024-01-06T07:56:30;99667.22;;;6.04;100.00
44934;BME280;30667;43.614;1.442;2024-01-06T07:58:56;99664.78;;;6.03;100.00
44934;BME280;30667;43.614;1.442;2024-01-06T08:01:21;99681.41;;;5.99;100.00
44934;BME280;30667;43.614;1.442;2024-01-06T08:03:46;99679.06;;;6.03;100.00
44934;BME280;30667;43.614;1.442;2024-01-06T08:06:12;99677.41;;;6.02;100.00
44934;BME280;30667;43.614;1.442;2024-01-06T08:08:37;99682.56;;;6.09;100.00
44934;BME280;30667;43.614;1.442;2024-01-06T08:11:03;99690.88;;;6.07;100.00
44934;BME280;30667;43.614;1.442;2024-01-06T08:13:28;99682.31;;;6.10;100.00
44934;BME280;30667;43.614;1.442;2024-01-06T08:15:54;99699.25;;;6.11;100.00
44934;BME280;30667;43.614;1.442;2024-01-06T08:18:19;99701.13;;;6.10;100.00
44934;BME280;30667;43.614;1.442;2024-01-06T08:20:46;99702.25;;;6.14;100.00
44934;BME280;30667;43.614;1.442;2024-01-06T08:23:11;99709.25;;;6.21;100.00
44934;BME280;30667;43.614;1.442;2024-01-06T08:25:37;99706.03;;;6.18;100.00
44934;BME280;30667;43.614;1.442;2024-01-06T08:28:03;99704.69;;;6.16;100.00
44934;BME280;30667;43.614;1.442;2024-01-06T08:30:28;99710.88;;;6.22;100.00
44934;BME280;30667;43.614;1.442;2024-01-06T08:32:53;99710.88;;;6.22;100.00
44934;BME280;30667;43.614;1.442;2024-01-06T08:35:19;99711.13;;;6.20;100.00
44934;BME280;30667;43.614;1.442;2024-01-06T08:37:45;99719.50;;;6.24;100.00
44934;BME280;30667;43.614;1.442;2024-01-06T08:40:10;99722.75;;;6.26;100.00
44934;BME280;30667;43.614;1.442;2024-01-06T08:42:36;99717.13;;;6.27;100.00
44934;BME280;30667;43.614;1.442;2024-01-06T08:45:01;99722.78;;;6.31;100.00
44934;BME280;30667;43.614;1.442;2024-01-06T08:47:27;99726.03;;;6.33;100.00
44934;BME280;30667;43.614;1.442;2024-01-06T08:49:53;99725.75;;;6.34;100.00
44934;BME280;30667;43.614;1.442;2024-01-06T08:52:18;99722.59;;;6.43;100.00
44934;BME280;30667;43.614;1.442;2024-01-06T08:54:44;99728.81;;;6.43;100.00
44934;BME280;30667;43.614;1.442;2024-01-06T08:57:09;99726.38;;;6.42;100.00
44934;BME280;30667;43.614;1.442;2024-01-06T08:59:35;99729.06;;;6.42;100.00
44934;BME280;30667;43.614;1.442;2024-01-06T09:02:00;99738.22;;;6.46;100.00
44934;BME280;30667;43.614;1.442;2024-01-06T09:04:26;99738.78;;;6.48;100.00
44934;BME280;30667;43.614;1.442;2024-01-06T09:06:52;99734.75;;;6.50;100.00
44934;BME280;30667;43.614;1.442;2024-01-06T09:09:17;99745.75;;;6.49;100.00
44934;BME280;30667;43.614;1.442;2024-01-06T09:11:43;99739.59;;;6.48;100.00
44934;BME280;30667;43.614;1.442;2024-01-06T09:14:09;99746.63;;;6.54;100.00
44934;BME280;30667;43.614;1.442;2024-01-06T09:16:35;99743.94;;;6.54;100.00
44934;BME280;30667;43.614;1.442;2024-01-06T09:19:01;99747.69;;;6.53;100.00
44934;BME280;30667;43.614;1.442;2024-01-06T09:21:27;99752.00;;;6.54;100.00
44934;BME280;30667;43.614;1.442;2024-01-06T09:23:52;99744.75;;;6.60;100.00
44934;BME280;30667;43.614;1.442;2024-01-06T09:26:17;99756.34;;;6.61;100.00
44934;BME280;30667;43.614;1.442;2024-01-06T09:28:43;99769.81;;;6.66;100.00
44934;BME280;30667;43.614;1.442;2024-01-06T09:31:08;99767.69;;;6.68;100.00
44934;BME280;30667;43.614;1.442;2024-01-06T09:33:33;99769.03;;;6.65;100.00
44934;BME280;30667;43.614;1.442;2024-01-06T09:35:59;99776.50;;;6.63;100.00
44934;BME280;30667;43.614;1.442;2024-01-06T09:38:25;99775.44;;;6.64;100.00
44934;BME280;30667;43.614;1.442;2024-01-06T09:40:52;99775.78;;;6.73;100.00
44934;BME280;30667;43.614;1.442;2024-01-06T09:43:18;99778.72;;;6.71;100.00
44934;BME280;30667;43.614;1.442;2024-01-06T09:45:48;99779.28;;;6.73;100.00
44934;BME280;30667;43.614;1.442;2024-01-06T09:48:20;99787.91;;;6.76;100.00
44934;BME280;30667;43.614;1.442;2024-01-06T09:50:49;99786.84;;;6.77;100.00
44934;BME280;30667;43.614;1.442;2024-01-06T09:53:20;99794.94;;;6.82;100.00
44934;BME280;30667;43.614;1.442;2024-01-06T09:55:46;99787.69;;;6.82;100.00
44934;BME280;30667;43.614;1.442;2024-01-06T09:58:17;99782.81;;;6.79;100.00
44934;BME280;30667;43.614;1.442;2024-01-06T10:00:42;99792.75;;;6.73;100.00
44934;BME280;30667;43.614;1.442;2024-01-06T10:03:07;99797.25;;;6.68;100.00
44934;BME280;30667;43.614;1.442;2024-01-06T10:05:33;99794.03;;;6.66;100.00
44934;BME280;30667;43.614;1.442;2024-01-06T10:07:59;99796.44;;;6.67;100.00
44934;BME280;30667;43.614;1.442;2024-01-06T10:10:24;99802.13;;;6.71;100.00
44934;BME280;30667;43.614;1.442;2024-01-06T10:12:52;99802.38;;;6.69;100.00
44934;BME280;30667;43.614;1.442;2024-01-06T10:15:19;99809.88;;;6.67;100.00
44934;BME280;30667;43.614;1.442;2024-01-06T10:17:45;99810.19;;;6.71;100.00
44934;BME280;30667;43.614;1.442;2024-01-06T10:20:12;99809.59;;;6.64;100.00
44934;BME280;30667;43.614;1.442;2024-01-06T10:22:40;99807.16;;;6.62;100.00
44934;BME280;30667;43.614;1.442;2024-01-06T10:25:07;99802.09;;;6.66;100.00
44934;BME280;30667;43.614;1.442;2024-01-06T10:27:40;99813.66;;;6.71;100.00
44934;BME280;30667;43.614;1.442;2024-01-06T10:30:06;99810.72;;;6.73;100.00
44934;BME280;30667;43.614;1.442;2024-01-06T10:32:33;99812.38;;;6.79;100.00
44934;BME280;30667;43.614;1.442;2024-01-06T10:35:00;99813.50;;;6.83;100.00
44934;BME280;30667;43.614;1.442;2024-01-06T10:37:27;99805.19;;;6.85;100.00
44934;BME280;30667;43.614;1.442;2024-01-06T10:40:10;99802.00;;;6.93;100.00
44934;BME280;30667;43.614;1.442;2024-01-06T10:42:37;99808.78;;;7.01;100.00
44934;BME280;30667;43.614;1.442;2024-01-06T10:45:08;99801.00;;;7.04;100.00
44934;BME280;30667;43.614;1.442;2024-01-06T10:47:38;99810.47;;;7.12;100.00
44934;BME280;30667;43.614;1.442;2024-01-06T10:50:04;99812.63;;;7.10;100.00
44934;BME280;30667;43.614;1.442;2024-01-06T10:52:31;99811.22;;;7.02;100.00
44934;BME280;30667;43.614;1.442;2024-01-06T10:54:57;99810.38;;;6.97;100.00
44934;BME280;30667;43.614;1.442;2024-01-06T10:57:23;99812.28;;;7.01;100.00
44934;BME280;30667;43.614;1.442;2024-01-06T10:59:51;99821.09;;;6.91;100.00
44934;BME280;30667;43.614;1.442;2024-01-06T11:02:17;99810.34;;;6.91;100.00
44934;BME280;30667;43.614;1.442;2024-01-06T11:04:47;99824.31;;;6.88;100.00
44934;BME280;30667;43.614;1.442;2024-01-06T11:07:19;99822.41;;;6.89;100.00
44934;BME280;30667;43.614;1.442;2024-01-06T11:09:58;99821.59;;;6.88;100.00
44934;BME280;30667;43.614;1.442;2024-01-06T11:12:25;99813.78;;;6.87;100.00
44934;BME280;30667;43.614;1.442;2024-01-06T11:14:52;99810.59;;;6.90;100.00
44934;BME280;30667;43.614;1.442;2024-01-06T11:17:51;99816.53;;;6.92;100.00
44934;BME280;30667;43.614;1.442;2024-01-06T11:20:19;99813.53;;;6.88;100.00
44934;BME280;30667;43.614;1.442;2024-01-06T11:22:45;99811.63;;;6.84;100.00
44934;BME280;30667;43.614;1.442;2024-01-06T11:25:21;99817.25;;;6.82;100.00
44934;BME280;30667;43.614;1.442;2024-01-06T11:27:49;99817.81;;;6.84;100.00
44934;BME280;30667;43.614;1.442;2024-01-06T11:30:27;99817.78;;;6.79;100.00
44934;BME280;30667;43.614;1.442;2024-01-06T11:32:57;99819.41;;;6.80;100.00
44934;BME280;30667;43.614;1.442;2024-01-06T11:35:27;99810.53;;;6.80;100.00
44934;BME280;30667;43.614;1.442;2024-01-06T11:37:57;99820.97;;;6.76;100.00
44934;BME280;30667;43.614;1.442;2024-01-06T11:40:31;99820.47;;;6.79;100.00
44934;BME280;30667;43.614;1.442;2024-01-06T11:43:09;99811.88;;;6.82;100.00
44934;BME280;30667;43.614;1.442;2024-01-06T11:45:38;99811.91;;;6.87;100.00
44934;BME280;30667;43.614;1.442;2024-01-06T11:48:07;99806.88;;;6.96;100.00
44934;BME280;30667;43.614;1.442;2024-01-06T11:50:35;99802.06;;;7.03;100.00
44934;BME280;30667;43.614;1.442;2024-01-06T11:53:02;99803.75;;;7.15;100.00
44934;BME280;30667;43.614;1.442;2024-01-06T11:55:28;99802.69;;;7.16;100.00
44934;BME280;30667;43.614;1.442;2024-01-06T11:57:55;99805.72;;;7.24;100.00
44934;BME280;30667;43.614;1.442;2024-01-06T12:00:32;99806.50;;;7.20;100.00
44934;BME280;30667;43.614;1.442;2024-01-06T12:02:59;99794.91;;;7.19;100.00
44934;BME280;30667;43.614;1.442;2024-01-06T12:05:26;99799.50;;;7.24;100.00
44934;BME280;30667;43.614;1.442;2024-01-06T12:07:59;99799.75;;;7.22;100.00
44934;BME280;30667;43.614;1.442;2024-01-06T12:10:27;99805.66;;;7.19;100.00
44934;BME280;30667;43.614;1.442;2024-01-06T12:15:26;99809.44;;;7.18;100.00
44934;BME280;30667;43.614;1.442;2024-01-06T12:17:51;99799.22;;;7.20;100.00
44934;BME280;30667;43.614;1.442;2024-01-06T12:20:17;99794.09;;;7.19;100.00
44934;BME280;30667;43.614;1.442;2024-01-06T12:22:42;99793.56;;;7.22;100.00
44934;BME280;30667;43.614;1.442;2024-01-06T12:25:09;99796.78;;;7.19;100.00
44934;BME280;30667;43.614;1.442;2024-01-06T12:27:34;99788.19;;;7.17;100.00
44934;BME280;30667;43.614;1.442;2024-01-06T12:30:00;99792.72;;;7.16;100.00
44934;BME280;30667;43.614;1.442;2024-01-06T12:32:26;99797.03;;;7.17;100.00
44934;BME280;30667;43.614;1.442;2024-01-06T12:34:51;99793.28;;;7.18;100.00
44934;BME280;30667;43.614;1.442;2024-01-06T12:37:16;99791.66;;;7.17;100.00
44934;BME280;30667;43.614;1.442;2024-01-06T12:39:43;99801.41;;;7.23;100.00
44934;BME280;30667;43.614;1.442;2024-01-06T12:42:10;99799.25;;;7.25;100.00
44934;BME280;30667;43.614;1.442;2024-01-06T12:44:36;99796.28;;;7.27;100.00
44934;BME280;30667;43.614;1.442;2024-01-06T12:47:04;99787.94;;;7.23;100.00
44934;BME280;30667;43.614;1.442;2024-01-06T12:49:29;99788.97;;;7.17;100.00
44934;BME280;30667;43.614;1.442;2024-01-06T12:51:55;99794.34;;;7.17;100.00
44934;BME280;30667;43.614;1.442;2024-01-06T12:54:20;99789.81;;;7.23;100.00
44934;BME280;30667;43.614;1.442;2024-01-06T12:56:46;99784.22;;;7.30;100.00
44934;BME280;30667;43.614;1.442;2024-01-06T12:59:11;99788.50;;;7.31;100.00
44934;BME280;30667;43.614;1.442;2024-01-06T13:01:37;99779.06;;;7.23;100.00